Terminal Aerodrome Forecast
Issued by NWS

Home | Current Version | Previous Version | Text Only | Print | Product List | Glossary On
Versions: 1 2 3 4 5 6 7 8 9 10 11 12 13 14 15 16 17
203
FTUS44 KTSA 220902 AAB
TAFBVO
TAF AMD
KBVO 220902Z 2209/2306 34007KT P6SM BKN018
     FM221200 35010KT P6SM BKN120
     FM221400 33007KT P6SM BKN250
     FM221800 34009KT P6SM FEW250
     FM230000 VRB02KT P6SM SKC=

USA.gov is the U.S. government's official web portal to all federal, state and local government web resources and services.